Aérodrome :
LOGIN :

S'inscrire | Disclaimer

   EN    FR    IT 

 










Légende :    VFR   VFR Marginal   IFR   IFR Intensif   IFR Très Intensif
Visi : 
Plafond : 
>= 8 km
>= 3000ft
5 à 8 km
1000 à 3000 ft
1500m à 5 km
500 à 1000 ft
800 à 1500m
200 à 500 ft
< 800m
< 200 ft
Symboles :   Orages  Brouillard  Fortes neiges  Fortes précipitations  Vent > 20 kt
SIGMETs :   Divers  Orages  Givrage  Turbulence  Onde Orograph.  Cendres Volcan.







- Altitude de l'aérodrome : 779 ft
- Code IATA : CMF
- Voir les cartes d'approche


LFLB - Chambery / Aix-Les-Bains

DERNIER METAR :
  • 230700Z AUTO VRB02KT 9999 BKN013 BKN041 OVC056 14/14 Q1019 BECMG SCT015 OVC030

METARs EXPIRÉS :
  • 230630Z AUTO VRB02KT 9999 BKN011 BKN039 BKN054 14/13 Q1019 BECMG SCT015 OVC030
  • 230600Z AUTO 13002KT 9999 SCT010 SCT041 OVC054 14/13 Q1019 TEMPO BKN008
  • 230530Z AUTO 00000KT 9999 SCT011 BKN054 OVC076 14/13 Q1018 TEMPO BKN008
  • 230500Z AUTO VRB02KT 9999 BKN010 BKN062 OVC074 14/13 Q1018 BECMG SCT015 OVC030
  • 230430Z AUTO VRB02KT 9999 BKN012 BKN041 OVC058 13/13 Q1018 BECMG SCT015 OVC030

TAF TAF LFLB
Valide du 23 à 06h jusqu'au 24 à 06h UTC


230500Z 2306/2406 VRB03KT 9999 SCT015 OVC030
TEMPO 2306/2308 BKN008
BECMG 2309/2311 36006KT SCT035
BECMG 2318/2320 VRB02KT CAVOK
Pas de NOTAMs connus pour ce terrain.



MET'MAP, la Météo Aéronautique d'un coup d'oeil ! - Copyright ORBIFLY Décembre 2007 - Disclaimer

ORBIFLY MET'MAP TEAM :

Programmation & Développement : Alexandra Zaïnal
Conception & Développement : Baudouin d'Aumeries
Co-Programmation & Développement : Marc-Olivier Méhu
Soutien technique & logistique : Manuel Goepfert

Contact : metmap@orbifly.com




SOURCES & CREDITS :

   NOAA